Mission Valley, Texas
Current Conditions -  °F | °C
As of 10:11 PM on Thursday 18 Dec 2014 (Local Time) from KVCT Reporting Station
Light Rain Light Rain  
Wind Chill: 64°   Ceiling: 600
Heat Index: 64°   Visibility: 4mi
Dew Point: 62°   Wind: 3mph
Humidity: 93%   Direction: 20°NNE
Pressure: 30.03"   Gusts: NA
Location:  28.7094°N, 97.0351°W
Report Text: KVCT 190411Z AUTO 02003KT 4SM -RA BR BKN006 OVC010 18/17 A3003 RMK AO2 RAE0356B09 CIG 004V009 P0000 T01780167
Loading
Personal Weather Stations






























Interactive Weather Map New forecast layout! Learn more

10-Day Weather Forecast

Advertisements
Track Severe Weather on mobile